Pagina principale
METAR-TAF:

METAR-TAF

Aeroporti :

Aeroporto di Cagliari-Elmas

Cagliari, Italia

latitudine: 39-15N, longitudine: 009-04E, altezza: 4 m

Osservazione

Il bollettino è stato emesso 39 minuti fa, alle 10:50 UTC
Vento 8 kt da sud
Temperature 26°C
Umidità 42%
Pressione 1024 hPa
Visibilità 10 km o più
nessuna nube inferiore a 1500 m e nessun cumulonembo

METAR: LIEE 191050Z 18008KT CAVOK 26/12 Q1024

Ora: 13:29 (11:29 UTC)

Previsione

Il bollettino è stato emesso 6 ore e 29 minuti fa, alle 05:00 UTC
Previsione valida dal 19 alle 06 UTC al 20 alle 06 UTC
Vento 5 kt da direzioni variabili
Visibilità 10 km o più
nessuna nube inferiore a 1500 m e nessun cumulonembo
Evoluzione graduale
dal 19 alle 08 UTC al 19 alle 10 UTC
Vento 12 kt da sud/sud-est
Evoluzione graduale
dal 19 alle 18 UTC al 19 alle 20 UTC
Vento 5 kt da direzioni variabili

TAF: LIEE 190500Z 1906/2006 VRB05KT CAVOK BECMG 1908/1910 16012KT BECMG 1918/1920 VRB05KT

Osservazioni e previsioni meteorologiche di più di 4000 aeroporti (messaggi METAR e TAF).

Le stazioni disponibili sono rappresentate dai dischi gialli e rossi sulla carta.

Puntare il mouse per vedere il nome della stazione.

Clicca sopra per visualizzare le osservazioni e previsioni meteorologiche.

Per cambiare la mappa : fare clic sui pulsanti verdi con una croce nera per ingrandire, il pulsante verde con un trattino per diminuire, o sulla freccia verde per le mappe adiacenti.


METAR-TAF: